sensor_id;sensor_type;location;lat;lon;timestamp;P1;durP1;ratioP1;P2;durP2;ratioP2
2622;SDS011;1321;48.690;9.022;2023-04-29T00:00:09;15.13;;;14.63;;
2622;SDS011;1321;48.690;9.022;2023-04-29T00:02:38;15.23;;;14.80;;
2622;SDS011;1321;48.690;9.022;2023-04-29T00:05:07;14.57;;;14.17;;
2622;SDS011;1321;48.690;9.022;2023-04-29T00:07:36;14.97;;;14.57;;
2622;SDS011;1321;48.690;9.022;2023-04-29T00:10:04;14.57;;;14.17;;
2622;SDS011;1321;48.690;9.022;2023-04-29T00:12:33;14.77;;;14.37;;
2622;SDS011;1321;48.690;9.022;2023-04-29T00:15:03;15.03;;;14.53;;
2622;SDS011;1321;48.690;9.022;2023-04-29T00:17:32;15.00;;;14.60;;
2622;SDS011;1321;48.690;9.022;2023-04-29T00:20:00;15.00;;;14.60;;
2622;SDS011;1321;48.690;9.022;2023-04-29T00:22:28;15.07;;;14.63;;
2622;SDS011;1321;48.690;9.022;2023-04-29T00:24:56;15.80;;;15.20;;
2622;SDS011;1321;48.690;9.022;2023-04-29T00:27:24;15.30;;;14.70;;
2622;SDS011;1321;48.690;9.022;2023-04-29T00:29:52;15.27;;;14.87;;
2622;SDS011;1321;48.690;9.022;2023-04-29T00:32:23;15.43;;;14.70;;
2622;SDS011;1321;48.690;9.022;2023-04-29T00:34:52;15.00;;;14.60;;
2622;SDS011;1321;48.690;9.022;2023-04-29T00:37:20;14.87;;;14.47;;
2622;SDS011;1321;48.690;9.022;2023-04-29T00:39:49;15.47;;;14.97;;
2622;SDS011;1321;48.690;9.022;2023-04-29T00:42:17;15.20;;;14.70;;
2622;SDS011;1321;48.690;9.022;2023-04-29T00:44:46;14.70;;;14.30;;
2622;SDS011;1321;48.690;9.022;2023-04-29T00:47:14;15.37;;;14.90;;
2622;SDS011;1321;48.690;9.022;2023-04-29T00:49:44;16.07;;;15.47;;
2622;SDS011;1321;48.690;9.022;2023-04-29T00:52:12;15.03;;;14.63;;
2622;SDS011;1321;48.690;9.022;2023-04-29T00:54:41;15.10;;;14.60;;
2622;SDS011;1321;48.690;9.022;2023-04-29T00:57:11;15.47;;;14.87;;
2622;SDS011;1321;48.690;9.022;2023-04-29T00:59:39;15.20;;;14.80;;
2622;SDS011;1321;48.690;9.022;2023-04-29T01:02:08;15.70;;;15.20;;
2622;SDS011;1321;48.690;9.022;2023-04-29T01:04:36;15.10;;;14.70;;
2622;SDS011;1321;48.690;9.022;2023-04-29T01:07:08;15.47;;;14.97;;
2622;SDS011;1321;48.690;9.022;2023-04-29T01:09:52;15.37;;;14.93;;
2622;SDS011;1321;48.690;9.022;2023-04-29T01:12:31;15.50;;;14.97;;
2622;SDS011;1321;48.690;9.022;2023-04-29T01:15:07;15.17;;;14.57;;
2622;SDS011;1321;48.690;9.022;2023-04-29T01:17:43;15.73;;;15.23;;
2622;SDS011;1321;48.690;9.022;2023-04-29T01:20:17;15.13;;;14.73;;
2622;SDS011;1321;48.690;9.022;2023-04-29T01:22:48;15.07;;;14.67;;
2622;SDS011;1321;48.690;9.022;2023-04-29T01:25:18;14.80;;;14.40;;
2622;SDS011;1321;48.690;9.022;2023-04-29T01:27:48;15.20;;;14.80;;
2622;SDS011;1321;48.690;9.022;2023-04-29T01:30:26;15.20;;;14.70;;
2622;SDS011;1321;48.690;9.022;2023-04-29T01:33:07;15.40;;;14.90;;
2622;SDS011;1321;48.690;9.022;2023-04-29T01:35:44;15.33;;;14.93;;
2622;SDS011;1321;48.690;9.022;2023-04-29T01:38:29;15.00;;;14.50;;
2622;SDS011;1321;48.690;9.022;2023-04-29T01:41:09;15.63;;;15.00;;
2622;SDS011;1321;48.690;9.022;2023-04-29T01:43:39;15.20;;;14.70;;
2622;SDS011;1321;48.690;9.022;2023-04-29T01:46:08;15.90;;;15.13;;
2622;SDS011;1321;48.690;9.022;2023-04-29T01:48:37;15.60;;;15.10;;
2622;SDS011;1321;48.690;9.022;2023-04-29T01:51:06;15.70;;;15.20;;
2622;SDS011;1321;48.690;9.022;2023-04-29T01:53:34;16.10;;;15.50;;
2622;SDS011;1321;48.690;9.022;2023-04-29T01:56:02;15.13;;;14.73;;
2622;SDS011;1321;48.690;9.022;2023-04-29T01:58:32;16.63;;;16.00;;
2622;SDS011;1321;48.690;9.022;2023-04-29T02:01:00;15.43;;;14.93;;
2622;SDS011;1321;48.690;9.022;2023-04-29T02:03:29;14.93;;;14.53;;
2622;SDS011;1321;48.690;9.022;2023-04-29T02:05:57;15.80;;;15.20;;
2622;SDS011;1321;48.690;9.022;2023-04-29T02:08:25;15.20;;;14.70;;
2622;SDS011;1321;48.690;9.022;2023-04-29T02:10:54;15.70;;;15.20;;
2622;SDS011;1321;48.690;9.022;2023-04-29T02:13:23;15.20;;;14.70;;
2622;SDS011;1321;48.690;9.022;2023-04-29T02:15:52;15.23;;;14.73;;
2622;SDS011;1321;48.690;9.022;2023-04-29T02:18:20;15.17;;;14.77;;
2622;SDS011;1321;48.690;9.022;2023-04-29T02:20:48;15.13;;;14.60;;
2622;SDS011;1321;48.690;9.022;2023-04-29T02:23:17;15.20;;;14.70;;
2622;SDS011;1321;48.690;9.022;2023-04-29T02:25:45;15.70;;;15.20;;
2622;SDS011;1321;48.690;9.022;2023-04-29T02:28:14;15.40;;;14.90;;
2622;SDS011;1321;48.690;9.022;2023-04-29T02:30:43;15.90;;;15.40;;
2622;SDS011;1321;48.690;9.022;2023-04-29T02:33:12;16.10;;;15.40;;
2622;SDS011;1321;48.690;9.022;2023-04-29T02:35:41;16.43;;;15.90;;
2622;SDS011;1321;48.690;9.022;2023-04-29T02:38:09;15.70;;;15.10;;
2622;SDS011;1321;48.690;9.022;2023-04-29T02:40:40;16.57;;;15.87;;
2622;SDS011;1321;48.690;9.022;2023-04-29T02:43:08;16.37;;;15.87;;
2622;SDS011;1321;48.690;9.022;2023-04-29T02:45:37;15.77;;;15.17;;
2622;SDS011;1321;48.690;9.022;2023-04-29T02:48:06;15.70;;;15.20;;
2622;SDS011;1321;48.690;9.022;2023-04-29T02:50:35;15.27;;;14.83;;
2622;SDS011;1321;48.690;9.022;2023-04-29T02:53:04;15.57;;;15.07;;
2622;SDS011;1321;48.690;9.022;2023-04-29T02:55:33;15.90;;;15.30;;
2622;SDS011;1321;48.690;9.022;2023-04-29T02:58:01;15.57;;;15.07;;
2622;SDS011;1321;48.690;9.022;2023-04-29T03:00:29;15.67;;;15.17;;
2622;SDS011;1321;48.690;9.022;2023-04-29T03:02:57;15.93;;;15.33;;
2622;SDS011;1321;48.690;9.022;2023-04-29T03:05:27;15.70;;;15.20;;
2622;SDS011;1321;48.690;9.022;2023-04-29T03:07:56;16.23;;;15.70;;
2622;SDS011;1321;48.690;9.022;2023-04-29T03:10:24;15.97;;;15.37;;
2622;SDS011;1321;48.690;9.022;2023-04-29T03:12:53;15.93;;;15.43;;
2622;SDS011;1321;48.690;9.022;2023-04-29T03:15:21;16.20;;;15.60;;
2622;SDS011;1321;48.690;9.022;2023-04-29T03:17:49;16.33;;;15.83;;
2622;SDS011;1321;48.690;9.022;2023-04-29T03:20:17;15.93;;;15.40;;
2622;SDS011;1321;48.690;9.022;2023-04-29T03:22:45;16.50;;;15.80;;
2622;SDS011;1321;48.690;9.022;2023-04-29T03:25:15;16.33;;;15.70;;
2622;SDS011;1321;48.690;9.022;2023-04-29T03:27:43;16.00;;;15.40;;
2622;SDS011;1321;48.690;9.022;2023-04-29T03:30:12;15.90;;;15.40;;
2622;SDS011;1321;48.690;9.022;2023-04-29T03:32:40;15.63;;;15.10;;
2622;SDS011;1321;48.690;9.022;2023-04-29T03:35:08;16.10;;;15.40;;
2622;SDS011;1321;48.690;9.022;2023-04-29T03:37:41;15.80;;;15.30;;
2622;SDS011;1321;48.690;9.022;2023-04-29T03:40:10;15.97;;;15.30;;
2622;SDS011;1321;48.690;9.022;2023-04-29T03:42:41;15.77;;;15.27;;
2622;SDS011;1321;48.690;9.022;2023-04-29T03:45:09;15.57;;;15.13;;
2622;SDS011;1321;48.690;9.022;2023-04-29T03:47:39;16.43;;;15.77;;
2622;SDS011;1321;48.690;9.022;2023-04-29T03:50:08;16.20;;;15.37;;
2622;SDS011;1321;48.690;9.022;2023-04-29T03:52:37;15.47;;;14.97;;
2622;SDS011;1321;48.690;9.022;2023-04-29T03:55:05;15.60;;;15.10;;
2622;SDS011;1321;48.690;9.022;2023-04-29T03:57:34;16.03;;;15.47;;
2622;SDS011;1321;48.690;9.022;2023-04-29T04:00:05;15.77;;;15.27;;
2622;SDS011;1321;48.690;9.022;2023-04-29T04:02:34;15.60;;;15.10;;
2622;SDS011;1321;48.690;9.022;2023-04-29T04:05:02;15.60;;;15.20;;
2622;SDS011;1321;48.690;9.022;2023-04-29T04:07:31;15.70;;;15.20;;
2622;SDS011;1321;48.690;9.022;2023-04-29T04:09:59;15.70;;;15.20;;
2622;SDS011;1321;48.690;9.022;2023-04-29T04:12:27;16.47;;;15.40;;
2622;SDS011;1321;48.690;9.022;2023-04-29T04:14:56;16.50;;;16.00;;
2622;SDS011;1321;48.690;9.022;2023-04-29T04:17:25;16.00;;;15.50;;
2622;SDS011;1321;48.690;9.022;2023-04-29T04:19:54;16.37;;;15.70;;
2622;SDS011;1321;48.690;9.022;2023-04-29T04:22:22;16.40;;;15.90;;
2622;SDS011;1321;48.690;9.022;2023-04-29T04:24:50;16.20;;;15.70;;
2622;SDS011;1321;48.690;9.022;2023-04-29T04:27:20;16.50;;;16.00;;
2622;SDS011;1321;48.690;9.022;2023-04-29T04:29:52;16.10;;;15.60;;
2622;SDS011;1321;48.690;9.022;2023-04-29T04:32:20;16.40;;;15.70;;
2622;SDS011;1321;48.690;9.022;2023-04-29T04:34:50;16.37;;;15.80;;
2622;SDS011;1321;48.690;9.022;2023-04-29T04:37:18;16.17;;;15.67;;
2622;SDS011;1321;48.690;9.022;2023-04-29T04:39:46;15.73;;;15.23;;
2622;SDS011;1321;48.690;9.022;2023-04-29T04:42:15;17.17;;;16.50;;
2622;SDS011;1321;48.690;9.022;2023-04-29T04:44:45;16.03;;;15.53;;
2622;SDS011;1321;48.690;9.022;2023-04-29T04:47:13;16.07;;;15.57;;
2622;SDS011;1321;48.690;9.022;2023-04-29T04:49:42;16.10;;;15.60;;
2622;SDS011;1321;48.690;9.022;2023-04-29T04:52:11;16.23;;;15.60;;
2622;SDS011;1321;48.690;9.022;2023-04-29T04:54:40;16.40;;;15.70;;
2622;SDS011;1321;48.690;9.022;2023-04-29T04:57:11;16.10;;;15.60;;
2622;SDS011;1321;48.690;9.022;2023-04-29T04:59:40;15.93;;;15.43;;
2622;SDS011;1321;48.690;9.022;2023-04-29T05:02:08;16.10;;;15.60;;
2622;SDS011;1321;48.690;9.022;2023-04-29T05:04:36;16.33;;;15.83;;
2622;SDS011;1321;48.690;9.022;2023-04-29T05:07:04;15.93;;;15.43;;
2622;SDS011;1321;48.690;9.022;2023-04-29T05:09:34;16.07;;;15.53;;
2622;SDS011;1321;48.690;9.022;2023-04-29T05:12:02;15.90;;;15.40;;
2622;SDS011;1321;48.690;9.022;2023-04-29T05:14:31;16.90;;;16.30;;
2622;SDS011;1321;48.690;9.022;2023-04-29T05:16:59;16.60;;;16.00;;
2622;SDS011;1321;48.690;9.022;2023-04-29T05:19:28;16.40;;;15.80;;
2622;SDS011;1321;48.690;9.022;2023-04-29T05:21:56;16.60;;;16.10;;
2622;SDS011;1321;48.690;9.022;2023-04-29T05:24:24;16.53;;;16.03;;
2622;SDS011;1321;48.690;9.022;2023-04-29T05:26:54;16.80;;;16.20;;
2622;SDS011;1321;48.690;9.022;2023-04-29T05:29:22;16.50;;;15.80;;
2622;SDS011;1321;48.690;9.022;2023-04-29T05:31:52;17.00;;;16.50;;
2622;SDS011;1321;48.690;9.022;2023-04-29T05:34:20;17.07;;;16.47;;
2622;SDS011;1321;48.690;9.022;2023-04-29T05:36:48;16.63;;;16.13;;
2622;SDS011;1321;48.690;9.022;2023-04-29T05:39:16;16.40;;;15.90;;
2622;SDS011;1321;48.690;9.022;2023-04-29T05:41:48;16.87;;;16.27;;
2622;SDS011;1321;48.690;9.022;2023-04-29T05:44:17;16.40;;;15.87;;
2622;SDS011;1321;48.690;9.022;2023-04-29T05:46:45;16.17;;;15.67;;
2622;SDS011;1321;48.690;9.022;2023-04-29T05:49:14;16.57;;;16.07;;
2622;SDS011;1321;48.690;9.022;2023-04-29T05:51:42;16.80;;;16.30;;
2622;SDS011;1321;48.690;9.022;2023-04-29T05:54:11;16.87;;;16.37;;
2622;SDS011;1321;48.690;9.022;2023-04-29T05:56:39;17.10;;;16.50;;
2622;SDS011;1321;48.690;9.022;2023-04-29T05:59:07;17.67;;;16.97;;
2622;SDS011;1321;48.690;9.022;2023-04-29T06:01:37;17.30;;;16.70;;
2622;SDS011;1321;48.690;9.022;2023-04-29T06:04:05;18.33;;;17.57;;
2622;SDS011;1321;48.690;9.022;2023-04-29T06:06:34;16.90;;;16.30;;
2622;SDS011;1321;48.690;9.022;2023-04-29T06:09:02;17.80;;;17.10;;
2622;SDS011;1321;48.690;9.022;2023-04-29T06:11:41;17.40;;;16.70;;
2622;SDS011;1321;48.690;9.022;2023-04-29T06:14:10;17.50;;;16.80;;
2622;SDS011;1321;48.690;9.022;2023-04-29T06:16:40;17.57;;;16.87;;
2622;SDS011;1321;48.690;9.022;2023-04-29T06:19:08;16.70;;;16.10;;
2622;SDS011;1321;48.690;9.022;2023-04-29T06:21:37;16.53;;;15.93;;
2622;SDS011;1321;48.690;9.022;2023-04-29T06:24:05;16.77;;;16.17;;
2622;SDS011;1321;48.690;9.022;2023-04-29T06:26:33;16.30;;;15.80;;
2622;SDS011;1321;48.690;9.022;2023-04-29T06:29:01;15.97;;;15.47;;
2622;SDS011;1321;48.690;9.022;2023-04-29T06:31:30;16.10;;;15.60;;
2622;SDS011;1321;48.690;9.022;2023-04-29T06:33:59;16.40;;;15.90;;
2622;SDS011;1321;48.690;9.022;2023-04-29T06:36:27;16.90;;;16.33;;
2622;SDS011;1321;48.690;9.022;2023-04-29T06:38:56;15.97;;;15.47;;
2622;SDS011;1321;48.690;9.022;2023-04-29T06:41:24;15.77;;;15.37;;
2622;SDS011;1321;48.690;9.022;2023-04-29T06:43:52;15.53;;;15.13;;
2622;SDS011;1321;48.690;9.022;2023-04-29T06:46:20;15.70;;;15.30;;
2622;SDS011;1321;48.690;9.022;2023-04-29T06:48:48;16.27;;;15.77;;
2622;SDS011;1321;48.690;9.022;2023-04-29T06:51:18;17.20;;;16.63;;
2622;SDS011;1321;48.690;9.022;2023-04-29T06:53:46;16.90;;;16.30;;
2622;SDS011;1321;48.690;9.022;2023-04-29T06:56:14;16.80;;;16.30;;
2622;SDS011;1321;48.690;9.022;2023-04-29T06:58:42;16.80;;;16.30;;
2622;SDS011;1321;48.690;9.022;2023-04-29T07:01:10;17.37;;;16.87;;
2622;SDS011;1321;48.690;9.022;2023-04-29T07:03:39;17.33;;;16.73;;
2622;SDS011;1321;48.690;9.022;2023-04-29T07:06:07;17.70;;;17.10;;
2622;SDS011;1321;48.690;9.022;2023-04-29T07:08:37;17.23;;;16.73;;
2622;SDS011;1321;48.690;9.022;2023-04-29T07:11:07;17.20;;;16.60;;
2622;SDS011;1321;48.690;9.022;2023-04-29T07:13:35;17.50;;;16.90;;
2622;SDS011;1321;48.690;9.022;2023-04-29T07:16:04;17.10;;;16.50;;
2622;SDS011;1321;48.690;9.022;2023-04-29T07:18:40;17.20;;;16.60;;
2622;SDS011;1321;48.690;9.022;2023-04-29T07:21:09;17.37;;;16.80;;
2622;SDS011;1321;48.690;9.022;2023-04-29T07:23:38;17.63;;;16.90;;
2622;SDS011;1321;48.690;9.022;2023-04-29T07:26:10;17.60;;;16.90;;
2622;SDS011;1321;48.690;9.022;2023-04-29T07:28:39;16.93;;;16.33;;
2622;SDS011;1321;48.690;9.022;2023-04-29T07:31:07;17.50;;;16.90;;
2622;SDS011;1321;48.690;9.022;2023-04-29T07:33:36;17.57;;;16.97;;
2622;SDS011;1321;48.690;9.022;2023-04-29T07:36:04;16.70;;;16.20;;
2622;SDS011;1321;48.690;9.022;2023-04-29T07:38:33;16.73;;;16.27;;
2622;SDS011;1321;48.690;9.022;2023-04-29T07:41:04;16.70;;;16.20;;
2622;SDS011;1321;48.690;9.022;2023-04-29T07:43:32;17.40;;;16.70;;
2622;SDS011;1321;48.690;9.022;2023-04-29T07:46:00;17.40;;;16.80;;
2622;SDS011;1321;48.690;9.022;2023-04-29T07:48:28;17.92;;;17.33;;
2622;SDS011;1321;48.690;9.022;2023-04-29T07:50:57;17.00;;;16.40;;
2622;SDS011;1321;48.690;9.022;2023-04-29T07:53:25;17.70;;;17.10;;
2622;SDS011;1321;48.690;9.022;2023-04-29T07:55:53;17.80;;;17.10;;
2622;SDS011;1321;48.690;9.022;2023-04-29T07:58:23;17.40;;;16.90;;
2622;SDS011;1321;48.690;9.022;2023-04-29T08:00:51;17.27;;;16.57;;
2622;SDS011;1321;48.690;9.022;2023-04-29T08:03:19;17.40;;;16.77;;
2622;SDS011;1321;48.690;9.022;2023-04-29T08:05:48;16.83;;;16.13;;
2622;SDS011;1321;48.690;9.022;2023-04-29T08:08:19;16.70;;;16.20;;
2622;SDS011;1321;48.690;9.022;2023-04-29T08:10:47;16.67;;;16.17;;
2622;SDS011;1321;48.690;9.022;2023-04-29T08:13:15;17.00;;;16.40;;
2622;SDS011;1321;48.690;9.022;2023-04-29T08:15:45;16.60;;;16.00;;
2622;SDS011;1321;48.690;9.022;2023-04-29T08:18:13;16.10;;;15.60;;
2622;SDS011;1321;48.690;9.022;2023-04-29T08:20:41;16.67;;;15.97;;
2622;SDS011;1321;48.690;9.022;2023-04-29T08:23:09;16.90;;;16.33;;
2622;SDS011;1321;48.690;9.022;2023-04-29T08:25:39;17.00;;;16.40;;
2622;SDS011;1321;48.690;9.022;2023-04-29T08:28:08;16.63;;;16.13;;
2622;SDS011;1321;48.690;9.022;2023-04-29T08:30:37;17.03;;;16.43;;
2622;SDS011;1321;48.690;9.022;2023-04-29T08:33:08;16.90;;;16.40;;
2622;SDS011;1321;48.690;9.022;2023-04-29T08:35:38;16.50;;;16.00;;
2622;SDS011;1321;48.690;9.022;2023-04-29T08:38:07;16.60;;;15.80;;
2622;SDS011;1321;48.690;9.022;2023-04-29T08:40:40;16.20;;;15.70;;
2622;SDS011;1321;48.690;9.022;2023-04-29T08:43:11;16.13;;;15.63;;
2622;SDS011;1321;48.690;9.022;2023-04-29T08:45:40;16.50;;;15.90;;
2622;SDS011;1321;48.690;9.022;2023-04-29T08:48:11;16.13;;;15.70;;
2622;SDS011;1321;48.690;9.022;2023-04-29T08:50:40;16.53;;;16.03;;
2622;SDS011;1321;48.690;9.022;2023-04-29T08:53:09;16.50;;;16.00;;
2622;SDS011;1321;48.690;9.022;2023-04-29T08:55:39;16.07;;;15.67;;
2622;SDS011;1321;48.690;9.022;2023-04-29T08:58:09;16.40;;;15.80;;
2622;SDS011;1321;48.690;9.022;2023-04-29T09:00:38;16.67;;;16.10;;
2622;SDS011;1321;48.690;9.022;2023-04-29T09:03:13;16.30;;;15.70;;
2622;SDS011;1321;48.690;9.022;2023-04-29T09:05:47;16.10;;;15.60;;
2622;SDS011;1321;48.690;9.022;2023-04-29T09:08:19;16.30;;;15.90;;
2622;SDS011;1321;48.690;9.022;2023-04-29T09:10:49;17.27;;;16.27;;
2622;SDS011;1321;48.690;9.022;2023-04-29T09:13:21;16.20;;;15.70;;
2622;SDS011;1321;48.690;9.022;2023-04-29T09:15:51;16.43;;;15.93;;
2622;SDS011;1321;48.690;9.022;2023-04-29T09:21:15;16.03;;;15.50;;
2622;SDS011;1321;48.690;9.022;2023-04-29T09:23:50;16.20;;;15.70;;
2622;SDS011;1321;48.690;9.022;2023-04-29T09:26:19;16.70;;;16.20;;
2622;SDS011;1321;48.690;9.022;2023-04-29T09:29:04;16.50;;;16.00;;
2622;SDS011;1321;48.690;9.022;2023-04-29T09:31:35;16.97;;;16.47;;
2622;SDS011;1321;48.690;9.022;2023-04-29T09:34:06;16.37;;;15.87;;
2622;SDS011;1321;48.690;9.022;2023-04-29T09:36:35;16.10;;;15.60;;
2622;SDS011;1321;48.690;9.022;2023-04-29T09:39:04;17.40;;;16.80;;
2622;SDS011;1321;48.690;9.022;2023-04-29T09:41:41;16.73;;;16.23;;
2622;SDS011;1321;48.690;9.022;2023-04-29T09:44:25;16.70;;;16.10;;
2622;SDS011;1321;48.690;9.022;2023-04-29T09:46:59;16.23;;;15.73;;
2622;SDS011;1321;48.690;9.022;2023-04-29T09:49:31;16.07;;;15.60;;
2622;SDS011;1321;48.690;9.022;2023-04-29T09:52:02;16.40;;;15.80;;
2622;SDS011;1321;48.690;9.022;2023-04-29T09:54:31;16.73;;;16.17;;
2622;SDS011;1321;48.690;9.022;2023-04-29T09:57:02;16.47;;;15.93;;
2622;SDS011;1321;48.690;9.022;2023-04-29T09:59:33;16.60;;;16.10;;
2622;SDS011;1321;48.690;9.022;2023-04-29T10:02:05;16.37;;;15.87;;
2622;SDS011;1321;48.690;9.022;2023-04-29T10:04:36;16.10;;;15.60;;
2622;SDS011;1321;48.690;9.022;2023-04-29T10:07:07;16.57;;;16.03;;
2622;SDS011;1321;48.690;9.022;2023-04-29T10:09:36;15.73;;;15.30;;
2622;SDS011;1321;48.690;9.022;2023-04-29T10:12:06;15.70;;;15.30;;
2622;SDS011;1321;48.690;9.022;2023-04-29T10:14:39;15.80;;;15.30;;
2622;SDS011;1321;48.690;9.022;2023-04-29T10:17:15;16.30;;;15.70;;
2622;SDS011;1321;48.690;9.022;2023-04-29T10:19:51;16.20;;;15.50;;
2622;SDS011;1321;48.690;9.022;2023-04-29T10:22:33;15.67;;;15.27;;
2622;SDS011;1321;48.690;9.022;2023-04-29T10:25:07;16.20;;;15.70;;
2622;SDS011;1321;48.690;9.022;2023-04-29T10:27:36;16.47;;;15.87;;
2622;SDS011;1321;48.690;9.022;2023-04-29T10:30:08;16.83;;;16.10;;
2622;SDS011;1321;48.690;9.022;2023-04-29T10:32:40;15.70;;;15.20;;
2622;SDS011;1321;48.690;9.022;2023-04-29T10:35:19;16.30;;;15.73;;
2622;SDS011;1321;48.690;9.022;2023-04-29T10:37:51;16.60;;;16.00;;
2622;SDS011;1321;48.690;9.022;2023-04-29T10:40:21;16.90;;;16.00;;
2622;SDS011;1321;48.690;9.022;2023-04-29T10:42:54;16.00;;;15.60;;
2622;SDS011;1321;48.690;9.022;2023-04-29T10:45:23;16.00;;;15.60;;
2622;SDS011;1321;48.690;9.022;2023-04-29T10:51:01;16.70;;;16.13;;
2622;SDS011;1321;48.690;9.022;2023-04-29T10:53:29;16.13;;;15.63;;
2622;SDS011;1321;48.690;9.022;2023-04-29T10:55:59;16.00;;;15.50;;
2622;SDS011;1321;48.690;9.022;2023-04-29T11:01:26;16.50;;;16.00;;
2622;SDS011;1321;48.690;9.022;2023-04-29T11:04:10;15.77;;;15.37;;
2622;SDS011;1321;48.690;9.022;2023-04-29T11:06:41;16.17;;;15.63;;
2622;SDS011;1321;48.690;9.022;2023-04-29T11:09:24;16.03;;;15.50;;
2622;SDS011;1321;48.690;9.022;2023-04-29T11:11:56;16.80;;;16.20;;
2622;SDS011;1321;48.690;9.022;2023-04-29T11:14:29;16.03;;;15.63;;
2622;SDS011;1321;48.690;9.022;2023-04-29T11:17:03;16.03;;;15.53;;
2622;SDS011;1321;48.690;9.022;2023-04-29T11:19:34;16.50;;;16.00;;
2622;SDS011;1321;48.690;9.022;2023-04-29T11:22:23;16.70;;;16.10;;
2622;SDS011;1321;48.690;9.022;2023-04-29T11:24:53;16.30;;;15.80;;
2622;SDS011;1321;48.690;9.022;2023-04-29T11:27:24;16.97;;;16.37;;
2622;SDS011;1321;48.690;9.022;2023-04-29T11:29:54;16.43;;;15.83;;
2622;SDS011;1321;48.690;9.022;2023-04-29T11:32:24;15.53;;;15.13;;
2622;SDS011;1321;48.690;9.022;2023-04-29T11:34:53;16.97;;;16.47;;
2622;SDS011;1321;48.690;9.022;2023-04-29T11:37:24;16.60;;;16.00;;
2622;SDS011;1321;48.690;9.022;2023-04-29T11:39:57;16.27;;;15.77;;
2622;SDS011;1321;48.690;9.022;2023-04-29T11:42:26;16.43;;;15.83;;
2622;SDS011;1321;48.690;9.022;2023-04-29T11:44:55;17.13;;;16.53;;
2622;SDS011;1321;48.690;9.022;2023-04-29T11:47:25;17.23;;;16.43;;
2622;SDS011;1321;48.690;9.022;2023-04-29T11:50:01;17.07;;;16.27;;
2622;SDS011;1321;48.690;9.022;2023-04-29T11:52:32;16.20;;;15.70;;
2622;SDS011;1321;48.690;9.022;2023-04-29T11:55:02;16.93;;;16.20;;
2622;SDS011;1321;48.690;9.022;2023-04-29T11:57:31;15.47;;;14.83;;
2622;SDS011;1321;48.690;9.022;2023-04-29T11:59:59;16.00;;;15.20;;
2622;SDS011;1321;48.690;9.022;2023-04-29T12:02:28;16.00;;;15.50;;
2622;SDS011;1321;48.690;9.022;2023-04-29T12:04:57;15.60;;;15.10;;
2622;SDS011;1321;48.690;9.022;2023-04-29T12:07:27;15.13;;;14.63;;
2622;SDS011;1321;48.690;9.022;2023-04-29T12:09:56;15.20;;;14.80;;
2622;SDS011;1321;48.690;9.022;2023-04-29T12:12:25;15.00;;;14.60;;
2622;SDS011;1321;48.690;9.022;2023-04-29T12:14:54;15.07;;;14.67;;
2622;SDS011;1321;48.690;9.022;2023-04-29T12:17:23;15.00;;;14.60;;
2622;SDS011;1321;48.690;9.022;2023-04-29T12:19:51;15.83;;;15.23;;
2622;SDS011;1321;48.690;9.022;2023-04-29T12:22:19;14.60;;;14.20;;
2622;SDS011;1321;48.690;9.022;2023-04-29T12:24:47;15.20;;;14.80;;
2622;SDS011;1321;48.690;9.022;2023-04-29T12:27:21;15.50;;;15.10;;
2622;SDS011;1321;48.690;9.022;2023-04-29T12:29:50;15.20;;;14.80;;
2622;SDS011;1321;48.690;9.022;2023-04-29T12:32:21;15.50;;;15.10;;
2622;SDS011;1321;48.690;9.022;2023-04-29T12:34:52;15.40;;;15.00;;
2622;SDS011;1321;48.690;9.022;2023-04-29T12:37:22;14.90;;;14.50;;
2622;SDS011;1321;48.690;9.022;2023-04-29T12:39:53;15.50;;;14.93;;
2622;SDS011;1321;48.690;9.022;2023-04-29T12:42:23;15.03;;;14.60;;
2622;SDS011;1321;48.690;9.022;2023-04-29T12:44:58;15.37;;;14.67;;
2622;SDS011;1321;48.690;9.022;2023-04-29T12:47:30;14.90;;;14.40;;
2622;SDS011;1321;48.690;9.022;2023-04-29T12:50:00;15.27;;;14.77;;
2622;SDS011;1321;48.690;9.022;2023-04-29T12:52:28;15.50;;;14.90;;
2622;SDS011;1321;48.690;9.022;2023-04-29T12:54:56;15.13;;;14.73;;
2622;SDS011;1321;48.690;9.022;2023-04-29T12:57:27;14.80;;;14.40;;
2622;SDS011;1321;48.690;9.022;2023-04-29T12:59:55;15.70;;;15.20;;
2622;SDS011;1321;48.690;9.022;2023-04-29T13:02:23;15.90;;;15.30;;
2622;SDS011;1321;48.690;9.022;2023-04-29T13:04:52;15.50;;;15.00;;
2622;SDS011;1321;48.690;9.022;2023-04-29T13:07:20;16.10;;;15.50;;
2622;SDS011;1321;48.690;9.022;2023-04-29T13:09:49;15.47;;;14.97;;
2622;SDS011;1321;48.690;9.022;2023-04-29T13:12:17;15.77;;;15.13;;
2622;SDS011;1321;48.690;9.022;2023-04-29T13:14:46;16.97;;;16.07;;
2622;SDS011;1321;48.690;9.022;2023-04-29T13:17:14;15.70;;;15.20;;
2622;SDS011;1321;48.690;9.022;2023-04-29T13:19:43;16.27;;;15.67;;
2622;SDS011;1321;48.690;9.022;2023-04-29T13:22:17;17.70;;;17.00;;
2622;SDS011;1321;48.690;9.022;2023-04-29T13:24:45;17.00;;;16.40;;
2622;SDS011;1321;48.690;9.022;2023-04-29T13:27:13;17.73;;;16.83;;
2622;SDS011;1321;48.690;9.022;2023-04-29T13:29:42;16.90;;;16.30;;
2622;SDS011;1321;48.690;9.022;2023-04-29T13:32:11;17.17;;;16.57;;
2622;SDS011;1321;48.690;9.022;2023-04-29T13:34:43;17.27;;;16.58;;
2622;SDS011;1321;48.690;9.022;2023-04-29T13:37:11;17.00;;;16.30;;
2622;SDS011;1321;48.690;9.022;2023-04-29T13:39:39;18.33;;;17.63;;
2622;SDS011;1321;48.690;9.022;2023-04-29T13:42:12;17.97;;;17.27;;
2622;SDS011;1321;48.690;9.022;2023-04-29T13:44:41;18.60;;;17.80;;
2622;SDS011;1321;48.690;9.022;2023-04-29T13:47:31;19.20;;;18.40;;
2622;SDS011;1321;48.690;9.022;2023-04-29T13:49:59;18.17;;;17.47;;
2622;SDS011;1321;48.690;9.022;2023-04-29T13:52:48;19.00;;;18.30;;
2622;SDS011;1321;48.690;9.022;2023-04-29T13:55:26;18.90;;;18.00;;
2622;SDS011;1321;48.690;9.022;2023-04-29T13:58:14;19.50;;;18.40;;
2622;SDS011;1321;48.690;9.022;2023-04-29T14:00:45;18.53;;;17.83;;
2622;SDS011;1321;48.690;9.022;2023-04-29T14:03:35;19.07;;;18.27;;
2622;SDS011;1321;48.690;9.022;2023-04-29T14:06:04;18.70;;;17.90;;
2622;SDS011;1321;48.690;9.022;2023-04-29T14:08:32;19.17;;;18.47;;
2622;SDS011;1321;48.690;9.022;2023-04-29T14:11:00;20.07;;;18.93;;
2622;SDS011;1321;48.690;9.022;2023-04-29T14:13:28;19.40;;;18.50;;
2622;SDS011;1321;48.690;9.022;2023-04-29T14:15:57;19.97;;;18.97;;
2622;SDS011;1321;48.690;9.022;2023-04-29T14:18:27;19.80;;;18.90;;
2622;SDS011;1321;48.690;9.022;2023-04-29T14:20:57;19.70;;;18.80;;
2622;SDS011;1321;48.690;9.022;2023-04-29T14:23:26;19.07;;;18.27;;
2622;SDS011;1321;48.690;9.022;2023-04-29T14:25:54;20.30;;;19.37;;
2622;SDS011;1321;48.690;9.022;2023-04-29T14:28:42;19.43;;;18.63;;
2622;SDS011;1321;48.690;9.022;2023-04-29T14:31:11;19.83;;;18.92;;
2622;SDS011;1321;48.690;9.022;2023-04-29T14:33:40;19.63;;;18.83;;
2622;SDS011;1321;48.690;9.022;2023-04-29T14:36:11;20.07;;;19.07;;
2622;SDS011;1321;48.690;9.022;2023-04-29T14:38:39;20.27;;;19.37;;
2622;SDS011;1321;48.690;9.022;2023-04-29T14:41:07;19.97;;;19.07;;
2622;SDS011;1321;48.690;9.022;2023-04-29T14:43:35;19.80;;;18.90;;
2622;SDS011;1321;48.690;9.022;2023-04-29T14:46:04;18.97;;;18.27;;
2622;SDS011;1321;48.690;9.022;2023-04-29T14:48:32;19.30;;;18.20;;
2622;SDS011;1321;48.690;9.022;2023-04-29T14:51:01;20.50;;;19.60;;
2622;SDS011;1321;48.690;9.022;2023-04-29T14:53:30;20.63;;;19.57;;
2622;SDS011;1321;48.690;9.022;2023-04-29T14:55:59;20.83;;;19.93;;
2622;SDS011;1321;48.690;9.022;2023-04-29T14:58:27;19.50;;;18.60;;
2622;SDS011;1321;48.690;9.022;2023-04-29T15:00:55;21.07;;;19.87;;
2622;SDS011;1321;48.690;9.022;2023-04-29T15:03:23;21.60;;;20.37;;
2622;SDS011;1321;48.690;9.022;2023-04-29T15:05:52;20.93;;;19.93;;
2622;SDS011;1321;48.690;9.022;2023-04-29T15:08:20;20.17;;;18.98;;
2622;SDS011;1321;48.690;9.022;2023-04-29T15:10:50;20.87;;;19.87;;
2622;SDS011;1321;48.690;9.022;2023-04-29T15:13:18;19.87;;;18.87;;